createdAt,value
2018-02-17T00:01:21.857Z,74.90
2018-02-17T00:03:49.407Z,74.66
2018-02-17T00:06:16.950Z,74.17
2018-02-17T00:08:44.603Z,74.92
2018-02-17T00:11:12.201Z,75.05
2018-02-17T00:13:39.745Z,75.19
2018-02-17T00:16:07.323Z,74.95
2018-02-17T00:18:34.851Z,74.46
2018-02-17T00:21:02.397Z,75.03
2018-02-17T00:23:30.060Z,74.87
2018-02-17T00:25:57.603Z,74.77
2018-02-17T00:28:25.141Z,74.51
2018-02-17T00:30:52.729Z,74.19
2018-02-17T00:33:20.268Z,75.07
2018-02-17T00:35:47.791Z,74.78
2018-02-17T00:38:15.341Z,74.66
2018-02-17T00:40:42.870Z,74.78
2018-02-17T00:43:10.395Z,74.72
2018-02-17T00:45:37.946Z,74.84
2018-02-17T00:48:05.479Z,74.86
2018-02-17T00:50:33.014Z,73.98
2018-02-17T00:53:00.562Z,74.68
2018-02-17T00:55:28.082Z,75.02
2018-02-17T00:57:55.599Z,75.06
2018-02-17T01:00:23.253Z,74.98
2018-02-17T01:02:50.843Z,74.77
2018-02-17T01:05:18.371Z,74.71
2018-02-17T01:07:45.916Z,75.21
2018-02-17T01:10:13.469Z,75.08
2018-02-17T01:12:41.289Z,74.92
2018-02-17T01:15:08.874Z,74.74
2018-02-17T01:17:36.406Z,74.51
2018-02-17T01:20:03.946Z,74.29
2018-02-17T01:22:31.495Z,75.13
2018-02-17T01:24:59.038Z,74.71
2018-02-17T01:27:26.561Z,74.96
2018-02-17T01:29:54.116Z,75.21
2018-02-17T01:32:21.676Z,74.85
2018-02-17T01:34:49.212Z,74.49
2018-02-17T01:37:17.124Z,74.69
2018-02-17T01:39:44.697Z,74.72
2018-02-17T01:42:12.227Z,74.93
2018-02-17T01:44:39.754Z,74.51
2018-02-17T01:47:07.295Z,74.64
2018-02-17T01:49:34.820Z,74.50
2018-02-17T01:52:02.355Z,74.68
2018-02-17T01:54:29.911Z,74.99
2018-02-17T01:56:57.445Z,75.14
2018-02-17T01:59:24.986Z,74.96
2018-02-17T02:01:52.582Z,75.01
2018-02-17T02:04:20.111Z,74.94
2018-02-17T02:06:47.625Z,75.19
2018-02-17T02:09:15.188Z,74.45
2018-02-17T02:11:42.737Z,74.90
2018-02-17T02:14:10.285Z,74.49
2018-02-17T02:16:37.852Z,74.95
2018-02-17T02:19:05.392Z,75.49
2018-02-17T02:21:32.931Z,75.17
2018-02-17T02:24:00.487Z,75.30
2018-02-17T02:26:28.031Z,74.06
2018-02-17T02:28:55.567Z,75.26
2018-02-17T02:31:23.114Z,75.22
2018-02-17T02:33:50.643Z,75.03
2018-02-17T02:36:18.172Z,75.26
2018-02-17T02:38:45.729Z,75.03
2018-02-17T02:41:13.282Z,75.32
2018-02-17T02:43:40.841Z,74.59
2018-02-17T02:46:08.382Z,75.18
2018-02-17T02:48:35.901Z,74.87
2018-02-17T02:51:03.421Z,74.62
2018-02-17T02:53:30.982Z,75.37
2018-02-17T02:55:58.515Z,75.31
2018-02-17T02:58:26.163Z,74.47
2018-02-17T03:00:53.742Z,74.64
2018-02-17T03:03:21.267Z,75.21
2018-02-17T03:05:48.805Z,74.95
2018-02-17T03:08:16.351Z,75.46
2018-02-17T03:10:43.883Z,74.53
2018-02-17T03:13:11.424Z,74.54
2018-02-17T03:15:38.996Z,74.83
2018-02-17T03:18:06.523Z,75.22
2018-02-17T03:20:34.058Z,74.91
2018-02-17T03:23:01.619Z,74.59
2018-02-17T03:25:29.161Z,74.93
2018-02-17T03:27:56.702Z,74.93
2018-02-17T03:30:24.317Z,75.16
2018-02-17T03:32:51.849Z,74.95
2018-02-17T03:35:19.371Z,74.07
2018-02-17T03:37:46.925Z,75.10
2018-02-17T03:40:14.455Z,75.44
2018-02-17T03:42:41.989Z,75.07
2018-02-17T03:45:09.549Z,75.59
2018-02-17T03:47:37.089Z,75.67
2018-02-17T03:50:04.602Z,75.79
2018-02-17T03:52:32.159Z,75.55
2018-02-17T03:54:59.685Z,75.62
2018-02-17T03:57:27.219Z,75.85
2018-02-17T03:59:54.762Z,75.26
2018-02-17T04:02:22.318Z,75.97
2018-02-17T04:04:49.851Z,75.39
2018-02-17T04:07:17.391Z,75.54
2018-02-17T04:09:44.933Z,75.93
2018-02-17T04:12:12.478Z,76.11
2018-02-17T04:14:40.031Z,76.24
2018-02-17T04:17:07.612Z,75.30
2018-02-17T04:19:35.183Z,75.70
2018-02-17T04:22:02.732Z,75.57
2018-02-17T04:24:30.298Z,75.29
2018-02-17T04:26:57.829Z,75.77
2018-02-17T04:29:25.348Z,75.37
2018-02-17T04:31:52.902Z,75.65
2018-02-17T04:34:20.453Z,75.24
2018-02-17T04:36:48.015Z,75.20
2018-02-17T04:39:15.578Z,75.17
2018-02-17T04:41:44.659Z,75.13
2018-02-17T04:44:17.730Z,74.98
2018-02-17T04:46:50.031Z,75.66
2018-02-17T04:49:17.586Z,75.18
2018-02-17T04:51:50.582Z,75.03
2018-02-17T04:54:33.838Z,75.40
2018-02-17T04:57:02.180Z,75.28
2018-02-17T04:59:35.104Z,74.99
2018-02-17T05:02:08.058Z,75.19
2018-02-17T05:04:38.155Z,75.35
2018-02-17T05:07:22.266Z,75.65
2018-02-17T05:09:50.658Z,75.42
2018-02-17T05:12:18.190Z,75.45
2018-02-17T05:14:48.618Z,75.55
2018-02-17T05:17:21.511Z,74.95
2018-02-17T05:19:54.501Z,75.09
2018-02-17T05:22:24.528Z,75.52
2018-02-17T05:24:57.633Z,74.98
2018-02-17T05:30:30.036Z,75.74
2018-02-17T05:33:17.293Z,75.52
2018-02-17T05:35:59.745Z,74.87
2018-02-17T05:38:27.266Z,74.70
2018-02-17T05:41:04.802Z,74.59
2018-02-17T05:43:32.345Z,73.45
2018-02-17T05:46:02.414Z,73.32
2018-02-17T05:48:32.405Z,71.89
2018-02-17T05:50:59.960Z,71.31
2018-02-17T05:53:27.497Z,69.50
2018-02-17T05:55:55.060Z,69.20
2018-02-17T05:58:22.590Z,68.12
2018-02-17T06:00:50.143Z,68.61
2018-02-17T06:03:17.664Z,63.73
2018-02-17T06:05:45.204Z,63.84
2018-02-17T06:08:12.764Z,65.77
2018-02-17T06:10:40.300Z,66.35
2018-02-17T06:13:07.841Z,67.65
2018-02-17T06:15:35.449Z,67.24
2018-02-17T06:18:02.984Z,68.41
2018-02-17T06:20:30.518Z,67.70
2018-02-17T06:22:58.105Z,67.62
2018-02-17T06:25:25.641Z,67.16
2018-02-17T06:27:53.157Z,65.28
2018-02-17T06:30:20.770Z,64.30
2018-02-17T06:32:48.305Z,63.50
2018-02-17T06:35:15.885Z,63.07
2018-02-17T06:37:43.430Z,63.12
2018-02-17T06:40:10.993Z,60.30
2018-02-17T06:42:38.527Z,49.47
2018-02-17T06:45:06.095Z,47.13
2018-02-17T06:47:33.634Z,44.60
2018-02-17T06:50:01.169Z,43.31
2018-02-17T06:52:28.728Z,40.63
2018-02-17T06:54:56.284Z,39.03
2018-02-17T06:57:23.841Z,37.48
2018-02-17T06:59:51.412Z,36.55
2018-02-17T07:02:18.985Z,35.19
2018-02-17T07:04:46.747Z,33.94
2018-02-17T07:07:14.275Z,32.51
2018-02-17T07:09:41.973Z,31.87
2018-02-17T07:12:09.505Z,31.40
2018-02-17T07:14:37.018Z,31.20
2018-02-17T07:17:04.562Z,30.42
2018-02-17T07:19:32.100Z,29.24
2018-02-17T07:21:59.642Z,28.24
2018-02-17T07:24:27.225Z,27.29
2018-02-17T07:26:55.013Z,27.00
2018-02-17T07:29:22.559Z,27.51
2018-02-17T07:31:50.225Z,27.06
2018-02-17T07:34:17.871Z,27.61
2018-02-17T07:36:45.405Z,27.97
2018-02-17T07:39:12.961Z,28.86
2018-02-17T07:41:40.501Z,30.02
2018-02-17T07:44:08.041Z,31.34
2018-02-17T07:46:36.561Z,32.49
2018-02-17T07:49:04.079Z,33.38
2018-02-17T07:51:31.717Z,34.40
2018-02-17T07:53:59.367Z,35.08
2018-02-17T07:56:26.917Z,35.34
2018-02-17T07:58:54.705Z,34.53
2018-02-17T08:01:22.262Z,33.46
2018-02-17T08:03:49.800Z,33.37
2018-02-17T08:06:17.419Z,32.56
2018-02-17T08:08:44.976Z,33.13
2018-02-17T08:11:12.509Z,32.54
2018-02-17T08:13:40.050Z,31.61
2018-02-17T08:16:07.598Z,30.65
2018-02-17T08:18:35.128Z,32.91
2018-02-17T08:21:02.650Z,31.16
2018-02-17T08:23:30.229Z,27.99
2018-02-17T08:25:57.746Z,25.56
2018-02-17T08:28:25.273Z,24.16
2018-02-17T08:30:52.830Z,23.21
2018-02-17T08:33:20.349Z,22.93
2018-02-17T08:35:47.881Z,23.33
2018-02-17T08:38:15.418Z,22.96
2018-02-17T08:40:43.025Z,23.03
2018-02-17T08:43:10.552Z,23.54
2018-02-17T08:45:38.094Z,22.75
2018-02-17T08:48:05.634Z,21.65
2018-02-17T08:50:33.154Z,21.30
2018-02-17T08:53:00.700Z,20.59
2018-02-17T08:55:28.227Z,20.09
2018-02-17T08:57:55.772Z,19.48
2018-02-17T09:00:23.354Z,18.91
2018-02-17T09:02:50.886Z,18.69
2018-02-17T09:05:18.445Z,18.53
2018-02-17T09:07:46.007Z,18.77
2018-02-17T09:10:13.545Z,18.59
2018-02-17T09:12:41.118Z,18.47
2018-02-17T09:15:08.733Z,18.36
2018-02-17T09:17:36.272Z,18.20
2018-02-17T09:20:03.872Z,18.02
2018-02-17T09:22:31.522Z,17.85
2018-02-17T09:24:59.082Z,17.80
2018-02-17T09:27:26.621Z,17.63
2018-02-17T09:29:54.341Z,17.51
2018-02-17T09:32:22.007Z,17.57
2018-02-17T09:34:49.547Z,17.30
2018-02-17T09:37:17.057Z,17.29
2018-02-17T09:39:44.701Z,17.38
2018-02-17T09:42:12.214Z,17.31
2018-02-17T09:44:39.730Z,17.26
2018-02-17T09:47:07.388Z,17.13
2018-02-17T09:49:34.921Z,17.10
2018-02-17T09:52:02.492Z,18.61
2018-02-17T09:54:30.170Z,20.41
2018-02-17T09:56:57.869Z,19.08
2018-02-17T09:59:25.412Z,20.27
2018-02-17T10:01:53.082Z,19.51
2018-02-17T10:04:20.630Z,19.29
2018-02-17T10:06:48.162Z,19.22
2018-02-17T10:09:15.712Z,18.95
2018-02-17T10:11:43.254Z,19.21
2018-02-17T10:14:10.784Z,18.74
2018-02-17T10:16:38.337Z,19.02
2018-02-17T10:19:05.871Z,18.88
2018-02-17T10:21:33.420Z,19.01
2018-02-17T10:24:00.961Z,18.82
2018-02-17T10:26:28.583Z,18.73
2018-02-17T10:28:56.142Z,18.85
2018-02-17T10:31:23.695Z,18.45
2018-02-17T10:33:51.273Z,18.61
2018-02-17T10:36:18.838Z,18.93
2018-02-17T10:38:46.373Z,18.94
2018-02-17T10:41:13.909Z,18.88
2018-02-17T10:43:41.435Z,18.62
2018-02-17T10:46:08.984Z,18.75
2018-02-17T10:48:36.529Z,18.52
2018-02-17T10:51:04.048Z,18.77
2018-02-17T10:53:31.601Z,18.68
2018-02-17T10:55:59.132Z,18.96
2018-02-17T10:58:26.677Z,19.03
2018-02-17T11:00:54.973Z,19.16
2018-02-17T11:03:22.498Z,19.50
2018-02-17T11:05:50.023Z,19.54
2018-02-17T11:08:17.571Z,19.21
2018-02-17T11:10:45.104Z,19.30
2018-02-17T11:13:12.626Z,19.53
2018-02-17T11:15:40.147Z,19.21
2018-02-17T11:18:07.681Z,20.54
2018-02-17T11:20:35.241Z,20.82
2018-02-17T11:23:02.820Z,18.93
2018-02-17T11:25:30.332Z,20.65
2018-02-17T11:27:57.852Z,19.84
2018-02-17T11:30:25.402Z,19.47
2018-02-17T11:32:52.925Z,19.12
2018-02-17T11:35:20.466Z,19.23
2018-02-17T11:37:48.007Z,20.40
2018-02-17T11:40:15.531Z,20.12
2018-02-17T11:42:43.227Z,19.53
2018-02-17T11:45:10.763Z,19.25
2018-02-17T11:47:38.338Z,19.42
2018-02-17T11:50:05.871Z,19.23
2018-02-17T11:52:33.389Z,20.13
2018-02-17T11:55:01.093Z,19.90
2018-02-17T11:57:28.644Z,20.03
2018-02-17T11:59:56.175Z,20.24
2018-02-17T12:02:23.754Z,20.71
2018-02-17T12:04:51.286Z,20.64
2018-02-17T12:07:18.854Z,21.32
2018-02-17T12:09:46.396Z,21.64
2018-02-17T12:12:13.928Z,22.11
2018-02-17T12:14:41.494Z,22.35
2018-02-17T12:17:09.026Z,22.23
2018-02-17T12:19:36.558Z,23.33
2018-02-17T12:22:04.094Z,22.72
2018-02-17T12:24:31.647Z,22.66
2018-02-17T12:26:59.319Z,23.63
2018-02-17T12:29:26.838Z,23.35
2018-02-17T12:31:54.401Z,23.51
2018-02-17T12:34:21.982Z,23.80
2018-02-17T12:36:49.480Z,24.39
2018-02-17T12:39:17.057Z,24.16
2018-02-17T12:41:44.583Z,24.73
2018-02-17T12:44:12.182Z,24.79
2018-02-17T12:46:39.698Z,24.86
2018-02-17T12:49:07.223Z,23.35
2018-02-17T12:51:34.760Z,24.64
2018-02-17T12:54:03.224Z,24.91
2018-02-17T12:56:30.782Z,25.68
2018-02-17T12:58:58.295Z,25.38
2018-02-17T13:01:25.844Z,24.69
2018-02-17T13:03:53.358Z,24.65
2018-02-17T13:06:20.885Z,24.94
2018-02-17T13:08:48.417Z,25.39
2018-02-17T13:11:15.938Z,24.52
2018-02-17T13:13:43.551Z,25.88
2018-02-17T13:16:11.065Z,25.39
2018-02-17T13:18:38.582Z,25.36
2018-02-17T13:21:06.116Z,25.38
2018-02-17T13:23:33.654Z,26.15
2018-02-17T13:26:01.225Z,25.90
2018-02-17T13:28:28.764Z,26.01
2018-02-17T13:30:56.303Z,26.08
2018-02-17T13:33:23.868Z,26.41
2018-02-17T13:35:51.425Z,26.63
2018-02-17T13:38:18.989Z,26.30
2018-02-17T13:40:46.538Z,26.53
2018-02-17T13:43:14.305Z,26.87
2018-02-17T13:45:41.863Z,27.14
2018-02-17T13:48:09.409Z,27.56
2018-02-17T13:50:37.206Z,27.79
2018-02-17T13:53:04.754Z,27.92
2018-02-17T13:55:32.295Z,28.45
2018-02-17T13:58:00.027Z,28.59
2018-02-17T14:00:27.416Z,29.10
2018-02-17T14:02:54.955Z,29.16
2018-02-17T14:05:22.505Z,29.30
2018-02-17T14:07:50.040Z,29.20
2018-02-17T14:10:17.568Z,30.01
2018-02-17T14:12:45.183Z,29.67
2018-02-17T14:15:12.707Z,29.70
2018-02-17T14:17:40.261Z,29.83
2018-02-17T14:20:07.807Z,29.93
2018-02-17T14:22:35.335Z,30.36
2018-02-17T14:25:02.941Z,30.77
2018-02-17T14:27:30.472Z,31.07
2018-02-17T14:29:58.003Z,30.92
2018-02-17T14:32:25.559Z,30.56
2018-02-17T14:34:53.077Z,31.38
2018-02-17T14:37:20.613Z,31.41
2018-02-17T14:39:48.163Z,31.52
2018-02-17T14:42:15.696Z,31.83
2018-02-17T14:44:43.296Z,32.01
2018-02-17T14:47:10.875Z,32.98
2018-02-17T14:49:38.431Z,33.05
2018-02-17T14:52:05.985Z,42.43
2018-02-17T14:54:33.512Z,33.29
2018-02-17T14:57:01.077Z,33.94
2018-02-17T14:59:28.608Z,35.40
2018-02-17T15:01:56.474Z,35.31
2018-02-17T15:04:25.160Z,35.27
2018-02-17T15:06:52.700Z,35.47
2018-02-17T15:09:20.250Z,35.58
2018-02-17T15:11:47.814Z,35.85
2018-02-17T15:14:15.550Z,35.95
2018-02-17T15:16:43.076Z,35.94
2018-02-17T15:19:10.602Z,35.87
2018-02-17T15:21:38.139Z,35.58
2018-02-17T15:24:05.696Z,34.92
2018-02-17T15:26:33.378Z,35.51
2018-02-17T15:29:00.911Z,35.69
2018-02-17T15:31:28.474Z,34.97
2018-02-17T15:33:56.063Z,35.02
2018-02-17T15:36:23.630Z,35.03
2018-02-17T15:38:51.162Z,35.01
2018-02-17T15:41:18.761Z,35.21
2018-02-17T15:43:47.261Z,35.40
2018-02-17T15:46:14.787Z,36.17
2018-02-17T15:48:42.403Z,37.68
2018-02-17T15:51:09.927Z,37.50
2018-02-17T15:53:38.762Z,38.84
2018-02-17T15:56:06.436Z,39.44
2018-02-17T15:58:33.958Z,40.03
2018-02-17T16:01:01.535Z,39.90
2018-02-17T16:03:29.068Z,40.37
2018-02-17T16:05:56.608Z,41.26
2018-02-17T16:08:24.137Z,40.76
2018-02-17T16:10:51.674Z,41.58
2018-02-17T16:13:19.227Z,40.08
2018-02-17T16:15:46.849Z,41.98
2018-02-17T16:18:14.390Z,40.74
2018-02-17T16:20:42.016Z,42.15
2018-02-17T16:23:09.621Z,42.51
2018-02-17T16:25:37.165Z,41.88
2018-02-17T16:28:04.698Z,43.79
2018-02-17T16:30:32.245Z,44.08
2018-02-17T16:32:59.804Z,46.41
2018-02-17T16:35:27.400Z,51.25
2018-02-17T16:37:55.053Z,48.88
2018-02-17T16:40:22.657Z,48.53
2018-02-17T16:42:50.193Z,47.44
2018-02-17T16:45:17.898Z,49.01
2018-02-17T16:47:45.904Z,50.08
2018-02-17T16:50:13.505Z,48.23
2018-02-17T16:52:41.186Z,49.21
2018-02-17T16:55:08.783Z,49.47
2018-02-17T16:57:36.340Z,50.59
2018-02-17T17:00:09.753Z,51.08
2018-02-17T17:02:37.266Z,52.65
2018-02-17T17:05:04.920Z,53.24
2018-02-17T17:07:32.474Z,53.55
2018-02-17T17:10:00.004Z,52.05
2018-02-17T17:12:27.539Z,51.44
2018-02-17T17:14:55.077Z,53.51
2018-02-17T17:17:22.844Z,53.13
2018-02-17T17:19:50.390Z,59.24
2018-02-17T17:22:17.907Z,56.10
2018-02-17T17:24:45.432Z,57.72
2018-02-17T17:27:12.996Z,57.86
2018-02-17T17:29:40.557Z,58.07
2018-02-17T17:32:08.159Z,57.33
2018-02-17T17:34:35.700Z,57.58
2018-02-17T17:37:03.239Z,58.62
2018-02-17T17:39:30.776Z,59.16
2018-02-17T17:41:58.304Z,59.60
2018-02-17T17:44:25.884Z,59.31
2018-02-17T17:46:53.450Z,60.78
2018-02-17T17:49:20.983Z,60.23
2018-02-17T17:51:48.508Z,62.59
2018-02-17T17:54:16.034Z,66.13
2018-02-17T17:56:43.832Z,65.44
2018-02-17T17:59:11.357Z,65.45
2018-02-17T18:01:38.917Z,65.56
2018-02-17T18:04:06.450Z,65.23
2018-02-17T18:06:34.310Z,64.87
2018-02-17T18:09:01.838Z,65.35
2018-02-17T18:11:29.685Z,65.42
2018-02-17T18:13:57.264Z,65.26
2018-02-17T18:16:25.715Z,65.88
2018-02-17T18:18:53.280Z,64.18
2018-02-17T18:21:20.809Z,65.54
2018-02-17T18:23:48.361Z,66.69
2018-02-17T18:26:15.935Z,65.37
2018-02-17T18:28:43.761Z,67.07
2018-02-17T18:31:12.396Z,67.76
2018-02-17T18:33:39.936Z,67.88
2018-02-17T18:36:07.455Z,67.26
2018-02-17T18:38:34.966Z,66.39
2018-02-17T18:41:02.504Z,68.01
2018-02-17T18:43:30.046Z,68.14
2018-02-17T18:45:57.560Z,66.43
2018-02-17T18:48:25.070Z,67.76
2018-02-17T18:50:52.618Z,68.26
2018-02-17T18:53:20.512Z,67.31
2018-02-17T18:55:48.086Z,69.00
2018-02-17T18:58:15.607Z,68.86
2018-02-17T19:00:43.157Z,69.05
2018-02-17T19:03:10.709Z,68.83
2018-02-17T19:05:38.236Z,68.66
2018-02-17T19:08:05.788Z,67.74
2018-02-17T19:10:33.345Z,68.60
2018-02-17T19:13:01.699Z,69.03
2018-02-17T19:15:29.237Z,68.03
2018-02-17T19:17:56.761Z,67.90
2018-02-17T19:20:24.283Z,69.29
2018-02-17T19:22:51.791Z,69.21
2018-02-17T19:25:19.338Z,69.42
2018-02-17T19:27:46.908Z,69.31
2018-02-17T19:30:14.809Z,68.94
2018-02-17T19:32:42.355Z,69.42
2018-02-17T19:35:11.100Z,70.15
2018-02-17T19:37:38.618Z,69.76
2018-02-17T19:40:06.155Z,68.25
2018-02-17T19:42:33.716Z,69.93
2018-02-17T19:45:01.869Z,67.68
2018-02-17T19:47:29.416Z,70.37
2018-02-17T19:49:56.955Z,69.13
2018-02-17T19:52:24.554Z,69.72
2018-02-17T19:54:52.104Z,68.79
2018-02-17T19:57:19.626Z,69.93
2018-02-17T19:59:47.145Z,69.96
2018-02-17T20:02:14.666Z,70.68
2018-02-17T20:04:42.196Z,70.43
2018-02-17T20:07:09.758Z,69.84
2018-02-17T20:09:37.305Z,70.26
2018-02-17T20:12:04.853Z,70.66
2018-02-17T20:14:32.379Z,70.24
2018-02-17T20:16:59.910Z,70.49
2018-02-17T20:19:27.561Z,70.48
2018-02-17T20:21:56.015Z,69.59
2018-02-17T20:24:23.534Z,70.49
2018-02-17T20:26:51.048Z,70.77
2018-02-17T20:29:18.576Z,69.53
2018-02-17T20:31:46.140Z,73.44
2018-02-17T20:34:13.689Z,71.68
2018-02-17T20:36:41.230Z,70.90
2018-02-17T20:39:08.750Z,71.13
2018-02-17T20:41:36.289Z,71.05
2018-02-17T20:44:03.848Z,71.12
2018-02-17T20:46:31.393Z,70.47
2018-02-17T20:48:58.956Z,70.75
2018-02-17T20:51:26.478Z,71.15
2018-02-17T20:53:54.031Z,70.76
2018-02-17T20:56:21.616Z,70.25
2018-02-17T20:58:49.151Z,69.72
2018-02-17T21:01:16.723Z,70.73
2018-02-17T21:03:44.296Z,71.03
2018-02-17T21:06:12.004Z,71.07
2018-02-17T21:08:39.521Z,70.79
2018-02-17T21:11:07.042Z,71.18
2018-02-17T21:13:34.595Z,71.21
2018-02-17T21:16:02.123Z,70.88
2018-02-17T21:18:29.656Z,70.62
2018-02-17T21:20:57.192Z,71.25
2018-02-17T21:23:24.707Z,70.41
2018-02-17T21:25:52.256Z,71.04
2018-02-17T21:28:19.774Z,71.32
2018-02-17T21:30:47.343Z,70.77
2018-02-17T21:33:14.881Z,70.50
2018-02-17T21:35:42.419Z,70.55
2018-02-17T21:38:09.950Z,71.81
2018-02-17T21:40:37.493Z,71.60
2018-02-17T21:43:05.047Z,71.60
2018-02-17T21:45:32.584Z,71.53
2018-02-17T21:48:00.118Z,71.16
2018-02-17T21:50:27.642Z,71.17
2018-02-17T21:52:55.176Z,70.50
2018-02-17T21:55:23.389Z,71.67
2018-02-17T21:57:50.920Z,71.11
2018-02-17T22:00:18.480Z,71.65
2018-02-17T22:02:46.017Z,71.07
2018-02-17T22:05:13.552Z,71.65
2018-02-17T22:07:41.076Z,71.04
2018-02-17T22:10:08.598Z,71.54
2018-02-17T22:12:36.232Z,71.58
2018-02-17T22:15:03.785Z,72.08
2018-02-17T22:17:31.313Z,71.89
2018-02-17T22:19:58.852Z,71.53
2018-02-17T22:22:26.404Z,71.14
2018-02-17T22:24:53.968Z,71.23
2018-02-17T22:27:21.502Z,71.81
2018-02-17T22:29:49.048Z,71.39
2018-02-17T22:32:16.589Z,71.80
2018-02-17T22:34:44.119Z,71.43
2018-02-17T22:37:11.697Z,71.62
2018-02-17T22:39:39.227Z,71.91
2018-02-17T22:42:06.827Z,71.38
2018-02-17T22:44:34.378Z,71.25
2018-02-17T22:47:01.898Z,71.64
2018-02-17T22:49:29.549Z,71.14
2018-02-17T22:51:57.068Z,71.42
2018-02-17T22:54:24.652Z,72.18
2018-02-17T22:56:52.206Z,72.22
2018-02-17T22:59:19.737Z,71.48
2018-02-17T23:01:47.356Z,72.25
2018-02-17T23:04:14.885Z,72.31
2018-02-17T23:06:42.410Z,72.34
2018-02-17T23:09:09.968Z,72.28
2018-02-17T23:11:37.498Z,72.34
2018-02-17T23:14:05.052Z,72.10
2018-02-17T23:16:32.578Z,72.01
2018-02-17T23:19:00.108Z,72.18
2018-02-17T23:21:27.644Z,72.29
2018-02-17T23:23:55.175Z,72.62
2018-02-17T23:26:22.769Z,72.25
2018-02-17T23:28:51.095Z,72.26
2018-02-17T23:31:18.673Z,72.08
2018-02-17T23:33:46.204Z,72.79
2018-02-17T23:36:13.741Z,72.14
2018-02-17T23:38:41.265Z,71.97
2018-02-17T23:41:08.795Z,71.99
2018-02-17T23:43:36.344Z,72.60
2018-02-17T23:46:03.867Z,71.74
2018-02-17T23:48:31.395Z,72.19
2018-02-17T23:50:58.916Z,72.13
2018-02-17T23:53:26.433Z,71.80
2018-02-17T23:55:53.942Z,72.26
2018-02-17T23:58:21.476Z,72.22
